Terminal Aerodrome Forecast
Issued by NWS Pittsburgh, PA

Current Version | Previous Version | Graphics & Text | Print | Product List | Glossary On
Versions: 1 2 3 4 5 6 7 8 9 10 11 12 13 14 15 16 17 18 19 20 21 22 23 24 25 26 27 28
000
FTUS41 KPBZ 152055 AAC
TAFPIT
TAF AMD
KPIT 152055Z 1521/1624 22013G25KT P6SM BKN035
      TEMPO 1522/1523 26020G35KT 1SM SHRA OVC025
     FM152300 28015G25KT P6SM VCSH BKN025
     FM160200 30010KT P6SM BKN025
     FM161200 31008KT P6SM SCT035=

USA.gov is the U.S. government's official web portal to all federal, state and local government web resources and services.